createdAt,value
2023-01-17T00:02:32.596Z,92930.94
2023-01-17T00:07:53.475Z,92928.88
2023-01-17T00:12:56.631Z,92931.66
2023-01-17T00:17:59.940Z,92935.25
2023-01-17T00:23:20.549Z,92939.59
2023-01-17T00:28:22.721Z,92950.97
2023-01-17T00:33:24.754Z,92961.06
2023-01-17T00:38:26.799Z,92965.34
2023-01-17T00:43:47.783Z,92976.28
2023-01-17T00:49:08.401Z,92970.63
2023-01-17T00:54:29.258Z,92989.91
2023-01-17T00:59:50.103Z,93000.06
2023-01-17T01:05:11.079Z,93009.50
2023-01-17T01:10:31.663Z,93005.63
2023-01-17T01:15:52.618Z,93016.28
2023-01-17T01:21:13.114Z,93023.78
2023-01-17T01:26:33.728Z,93023.78
2023-01-17T01:31:54.526Z,93026.47
2023-01-17T01:36:58.022Z,93011.69
2023-01-17T01:42:01.106Z,93018.88
2023-01-17T01:47:04.169Z,93019.56
2023-01-17T01:52:07.530Z,93018.56
2023-01-17T01:57:10.640Z,93020.28
2023-01-17T02:08:13.249Z,93019.31
2023-01-17T02:13:16.574Z,93023.09
2023-01-17T02:18:19.681Z,93037.94
2023-01-17T02:23:22.767Z,93023.91
2023-01-17T02:28:25.873Z,93009.69
2023-01-17T02:33:29.208Z,93016.91
2023-01-17T02:38:32.443Z,93032.78
2023-01-17T02:43:36.027Z,93036.38
2023-01-17T02:48:39.188Z,93018.66
2023-01-17T02:53:43.069Z,93027.19
2023-01-17T02:58:46.153Z,93020.38
2023-01-17T03:03:49.314Z,93021.25
2023-01-17T03:08:52.035Z,93034.56
2023-01-17T03:13:54.611Z,93032.94
2023-01-17T03:18:57.302Z,93037.31
2023-01-17T03:23:59.978Z,93037.59
2023-01-17T03:29:02.591Z,93047.44
2023-01-17T03:34:05.244Z,93048.53
2023-01-17T03:39:07.974Z,93053.34
2023-01-17T03:44:10.709Z,93051.28
2023-01-17T03:49:13.345Z,93057.66
2023-01-17T03:54:16.608Z,93054.56
2023-01-17T03:59:19.730Z,93053.50
2023-01-17T04:04:22.854Z,93064.66
2023-01-17T04:09:26.059Z,93062.06
2023-01-17T04:14:29.641Z,93048.13
2023-01-17T04:19:32.787Z,93050.50
2023-01-17T04:24:35.929Z,93057.94
2023-01-17T04:29:39.206Z,93057.91
2023-01-17T04:34:42.406Z,93059.00
2023-01-17T04:39:45.730Z,93058.72
2023-01-17T04:44:48.807Z,93058.50
2023-01-17T04:49:53.611Z,93060.63
2023-01-17T04:54:56.760Z,93060.88
2023-01-17T05:00:00.043Z,93049.03
2023-01-17T05:05:03.230Z,93051.19
2023-01-17T05:10:05.842Z,93047.25
2023-01-17T05:15:08.493Z,93052.25
2023-01-17T05:20:11.133Z,93063.84
2023-01-17T05:25:14.032Z,93079.09
2023-01-17T05:30:16.651Z,93080.09
2023-01-17T05:35:19.732Z,93085.09
2023-01-17T05:40:22.325Z,93096.69
2023-01-17T05:45:24.987Z,93098.00
2023-01-17T05:50:27.715Z,93099.28
2023-01-17T05:55:30.399Z,93105.97
2023-01-17T06:00:33.000Z,93109.63
2023-01-17T06:05:35.606Z,93102.75
2023-01-17T06:10:38.248Z,93109.38
2023-01-17T06:15:40.995Z,93102.03
2023-01-17T06:20:43.626Z,93100.13
2023-01-17T06:25:46.296Z,93089.56
2023-01-17T06:30:49.162Z,93080.59
2023-01-17T06:35:51.878Z,93076.88
2023-01-17T06:40:55.025Z,93082.22
2023-01-17T06:45:57.640Z,93074.88
2023-01-17T06:51:00.353Z,93082.00
2023-01-17T06:56:03.039Z,93093.34
2023-01-17T07:01:05.818Z,93085.66
2023-01-17T07:06:09.553Z,93082.78
2023-01-17T07:11:12.285Z,93080.16
2023-01-17T07:16:15.135Z,93079.09
2023-01-17T07:21:17.976Z,93074.31
2023-01-17T07:26:20.751Z,93080.66
2023-01-17T07:31:23.495Z,93076.94
2023-01-17T07:36:26.170Z,93075.88
2023-01-17T07:41:28.821Z,93077.44
2023-01-17T07:46:31.445Z,93073.19
2023-01-17T07:51:34.235Z,93071.00
2023-01-17T07:56:37.054Z,93068.91
2023-01-17T08:01:39.871Z,93053.81
2023-01-17T08:06:42.646Z,93041.47
2023-01-17T08:11:45.317Z,93038.53
2023-01-17T08:16:48.009Z,93039.81
2023-01-17T08:21:50.679Z,93039.47
2023-01-17T08:26:54.974Z,93028.44
2023-01-17T08:31:57.638Z,93036.75
2023-01-17T08:37:00.208Z,93026.00
2023-01-17T08:42:03.030Z,93026.72
2023-01-17T08:47:05.802Z,93019.38
2023-01-17T08:52:08.534Z,93005.16
2023-01-17T08:57:11.156Z,92997.84
2023-01-17T09:02:14.906Z,92997.75
2023-01-17T09:07:17.597Z,92996.25
2023-01-17T09:12:22.191Z,93010.84
2023-01-17T09:17:24.938Z,93017.25
2023-01-17T09:22:27.684Z,93014.59
2023-01-17T09:27:30.381Z,93015.66
2023-01-17T09:32:33.226Z,93009.28
2023-01-17T09:37:35.900Z,93001.38
2023-01-17T09:42:38.726Z,92984.38
2023-01-17T09:47:41.528Z,92987.00
2023-01-17T09:52:44.201Z,92972.38
2023-01-17T09:57:46.752Z,92962.81
2023-01-17T10:02:49.513Z,92937.59
2023-01-17T10:07:52.637Z,92919.50
2023-01-17T10:12:55.367Z,92907.78
2023-01-17T10:17:57.967Z,92910.88
2023-01-17T10:23:00.667Z,92896.09
2023-01-17T10:28:03.288Z,92898.00
2023-01-17T10:33:07.476Z,92899.47
2023-01-17T10:38:10.231Z,92895.69
2023-01-17T10:43:12.849Z,92896.03
2023-01-17T10:48:15.580Z,92892.00
2023-01-17T10:53:18.198Z,92879.22
2023-01-17T10:58:20.837Z,92876.88
2023-01-17T11:03:23.840Z,92867.25
2023-01-17T11:08:26.447Z,92867.81
2023-01-17T11:13:29.500Z,92846.00
2023-01-17T11:18:32.123Z,92831.00
2023-01-17T11:23:35.213Z,92822.44
2023-01-17T11:28:37.947Z,92821.66
2023-01-17T11:33:46.952Z,92809.38
2023-01-17T11:38:50.026Z,92807.72
2023-01-17T11:43:52.614Z,92819.28
2023-01-17T11:48:56.438Z,92808.47
2023-01-17T11:53:59.387Z,92796.66
2023-01-17T11:59:02.442Z,92795.59
2023-01-17T12:04:08.247Z,92777.63
2023-01-17T12:09:10.951Z,92765.56
2023-01-17T12:14:13.574Z,92761.69
2023-01-17T12:19:16.198Z,92742.00
2023-01-17T12:24:19.101Z,92730.09
2023-01-17T12:29:21.687Z,92713.16
2023-01-17T12:34:24.424Z,92712.72
2023-01-17T12:39:27.080Z,92699.94
2023-01-17T12:44:29.716Z,92686.78
2023-01-17T12:49:32.431Z,92670.50
2023-01-17T12:54:35.841Z,92671.94
2023-01-17T12:59:38.554Z,92660.50
2023-01-17T13:04:57.460Z,92660.50
2023-01-17T13:10:00.673Z,92640.16
2023-01-17T13:15:07.075Z,92630.91
2023-01-17T13:20:09.686Z,92638.88
2023-01-17T13:25:12.330Z,92640.00
2023-01-17T13:30:15.308Z,92631.53
2023-01-17T13:35:17.914Z,92629.56
2023-01-17T13:40:20.526Z,92617.94
2023-01-17T13:45:23.154Z,92626.97
2023-01-17T13:50:25.742Z,92627.09
2023-01-17T13:55:28.330Z,92622.53
2023-01-17T14:00:31.020Z,92622.63
2023-01-17T14:05:33.689Z,92608.34
2023-01-17T14:10:36.374Z,92595.72
2023-01-17T14:15:39.062Z,92589.44
2023-01-17T14:20:41.703Z,92582.09
2023-01-17T14:25:44.413Z,92571.81
2023-01-17T14:30:47.078Z,92565.66
2023-01-17T14:35:49.855Z,92570.28
2023-01-17T14:40:52.937Z,92546.94
2023-01-17T14:45:55.883Z,92531.44
2023-01-17T14:51:00.142Z,92516.16
2023-01-17T14:56:03.236Z,92518.91
2023-01-17T15:01:05.951Z,92522.66
2023-01-17T15:06:08.888Z,92513.72
2023-01-17T15:11:11.970Z,92512.78
2023-01-17T15:16:14.749Z,92522.38
2023-01-17T15:21:17.357Z,92519.25
2023-01-17T15:26:20.491Z,92510.81
2023-01-17T15:31:23.105Z,92512.41
2023-01-17T15:36:25.715Z,92500.94
2023-01-17T15:41:28.861Z,92497.81
2023-01-17T15:46:31.491Z,92488.69
2023-01-17T15:51:34.599Z,92482.44
2023-01-17T15:56:37.710Z,92473.13
2023-01-17T16:01:40.341Z,92465.97
2023-01-17T16:06:46.718Z,92462.47
2023-01-17T16:11:49.394Z,92461.97
2023-01-17T16:16:52.526Z,92469.22
2023-01-17T16:21:56.991Z,92475.47
2023-01-17T16:27:00.045Z,92482.75
2023-01-17T16:32:08.681Z,92474.13
2023-01-17T16:37:11.363Z,92480.97
2023-01-17T16:42:14.087Z,92474.50
2023-01-17T16:47:16.695Z,92483.13
2023-01-17T16:52:19.710Z,92494.19
2023-01-17T16:57:23.133Z,92484.88
2023-01-17T17:02:26.234Z,92501.34
2023-01-17T17:07:29.365Z,92506.25
2023-01-17T17:12:32.464Z,92510.84
2023-01-17T17:17:36.001Z,92517.31
2023-01-17T17:22:39.105Z,92520.16
2023-01-17T17:27:42.197Z,92535.03
2023-01-17T17:32:45.262Z,92541.13
2023-01-17T17:37:48.409Z,92552.59
2023-01-17T17:42:51.054Z,92557.22
2023-01-17T17:47:54.476Z,92575.34
2023-01-17T17:52:57.974Z,92580.53
2023-01-17T17:58:02.076Z,92586.00
2023-01-17T18:03:04.803Z,92565.06
2023-01-17T18:08:07.505Z,92548.56
2023-01-17T18:13:10.394Z,92555.44
2023-01-17T18:18:13.165Z,92560.13
2023-01-17T18:23:15.885Z,92562.09
2023-01-17T18:28:19.133Z,92572.47
2023-01-17T18:33:21.771Z,92575.59
2023-01-17T18:38:38.204Z,92573.88
2023-01-17T18:43:41.403Z,92579.53
2023-01-17T18:48:44.237Z,92591.31
2023-01-17T18:53:46.814Z,92615.22
2023-01-17T18:58:49.630Z,92602.88
2023-01-17T19:03:52.323Z,92621.41
2023-01-17T19:08:55.049Z,92633.63
2023-01-17T19:13:57.752Z,92650.91
2023-01-17T19:19:01.425Z,92658.66
2023-01-17T19:24:04.123Z,92670.16
2023-01-17T19:29:07.010Z,92664.25
2023-01-17T19:34:10.031Z,92660.34
2023-01-17T19:39:13.162Z,92666.81
2023-01-17T19:44:16.625Z,92670.72
2023-01-17T19:49:24.009Z,92681.53
2023-01-17T19:54:27.580Z,92672.00
2023-01-17T19:59:30.242Z,92657.22
2023-01-17T20:04:33.405Z,92664.06
2023-01-17T20:09:36.144Z,92663.97
2023-01-17T20:14:38.917Z,92666.63
2023-01-17T20:19:42.294Z,92652.09
2023-01-17T20:24:45.374Z,92654.06
2023-01-17T20:29:48.436Z,92643.84
2023-01-17T20:34:51.860Z,92648.84
2023-01-17T20:39:55.228Z,92665.00
2023-01-17T20:44:58.405Z,92669.53
2023-01-17T20:50:03.155Z,92668.25
2023-01-17T20:55:08.326Z,92674.81
2023-01-17T21:00:11.399Z,92665.88
2023-01-17T21:05:14.652Z,92668.53
2023-01-17T21:10:17.942Z,92667.88
2023-01-17T21:15:21.475Z,92672.50
2023-01-17T21:20:27.297Z,92670.75
2023-01-17T21:25:30.477Z,92667.97
2023-01-17T21:30:33.616Z,92668.84
2023-01-17T21:35:36.673Z,92671.50
2023-01-17T21:40:39.735Z,92666.78
2023-01-17T21:45:42.850Z,92675.59
2023-01-17T21:50:46.231Z,92678.16
2023-01-17T21:56:06.898Z,92679.44
2023-01-17T22:01:15.911Z,92676.06
2023-01-17T22:06:19.166Z,92677.38
2023-01-17T22:11:22.344Z,92692.25
2023-01-17T22:16:25.481Z,92690.22
2023-01-17T22:21:29.192Z,92700.28
2023-01-17T22:26:32.420Z,92710.44
2023-01-17T22:31:35.605Z,92708.66
2023-01-17T22:36:38.664Z,92715.56
2023-01-17T22:41:41.774Z,92715.94
2023-01-17T22:46:45.146Z,92719.44
2023-01-17T22:51:48.290Z,92715.06
2023-01-17T22:56:51.440Z,92707.72
2023-01-17T23:01:54.575Z,92709.44
2023-01-17T23:06:57.666Z,92713.41
2023-01-17T23:12:00.803Z,92712.53
2023-01-17T23:17:21.786Z,92721.88
2023-01-17T23:22:26.688Z,92728.25
2023-01-17T23:27:47.690Z,92735.38
2023-01-17T23:32:50.859Z,92732.59
2023-01-17T23:38:11.525Z,92729.22
2023-01-17T23:43:26.557Z,92741.78
2023-01-17T23:48:29.723Z,92728.63
2023-01-17T23:53:32.871Z,92737.41
2023-01-17T23:58:35.924Z,92738.66
